Time;durP1;ratioP1;P1;durP2;ratioP2;P2;SDS_P1;SDS_P2;PMS_P1;PMS_P2;Temp;Humidity;BMP_temperature;BMP_pressure;BME280_temperature;BME280_humidity;BME280_pressure;Samples;Min_cycle;Max_cycle;Signal;HPM_P1;HPM_P2
2023/07/01 00:01:35;;;;;;;10.50;4.40;;;19.40;70.80;;;;;;4965031;28;20077;-76
2023/07/01 00:04:02;;;;;;;8.75;4.68;;;19.40;71.60;;;;;;4962546;28;20391;-75
2023/07/01 00:06:27;;;;;;;12.65;4.88;;;19.30;73.60;;;;;;4958821;28;20046;-76
2023/07/01 00:08:54;;;;;;;12.43;5.03;;;19.30;74.70;;;;;;4963436;28;20031;-76
2023/07/01 00:11:20;;;;;;;10.00;4.60;;;19.20;75.30;;;;;;4966460;28;20537;-75
2023/07/01 00:13:46;;;;;;;10.88;5.03;;;19.10;75.60;;;;;;4962009;28;20561;-77
2023/07/01 00:16:13;;;;;;;12.82;5.55;;;19.00;75.80;;;;;;4962739;28;20039;-76
2023/07/01 00:18:40;;;;;;;9.93;5.00;;;19.00;76.60;;;;;;4959344;28;20046;-78
2023/07/01 00:21:07;;;;;;;15.65;5.55;;;18.90;76.70;;;;;;4969730;28;20066;-78
2023/07/01 00:23:33;;;;;;;15.25;4.80;;;18.90;77.10;;;;;;4961515;28;20042;-77
2023/07/01 00:25:58;;;;;;;9.82;4.03;;;18.80;77.40;;;;;;4963255;28;20082;-77
2023/07/01 00:28:24;;;;;;;5.95;3.58;;;18.90;77.20;;;;;;4967816;28;20558;-77
2023/07/01 00:30:50;;;;;;;7.60;3.30;;;18.80;77.30;;;;;;4957049;28;20045;-78
2023/07/01 00:33:15;;;;;;;10.20;4.00;;;18.70;77.60;;;;;;4963247;28;20042;-77
2023/07/01 00:35:41;;;;;;;9.50;4.10;;;18.70;77.40;;;;;;4963155;28;20091;-77
2023/07/01 00:38:07;;;;;;;11.82;4.30;;;18.70;77.40;;;;;;4962760;28;20031;-78
2023/07/01 00:40:32;;;;;;;10.70;4.90;;;18.70;77.70;;;;;;4960814;28;20463;-75
2023/07/01 00:42:58;;;;;;;12.30;4.68;;;18.70;78.00;;;;;;4956441;28;20126;-77
2023/07/01 00:45:24;;;;;;;8.60;4.55;;;18.70;78.20;;;;;;4964781;28;20520;-76
2023/07/01 00:47:50;;;;;;;9.82;4.65;;;18.60;79.90;;;;;;4960592;28;20429;-76
2023/07/01 00:50:16;;;;;;;10.65;4.35;;;18.40;80.90;;;;;;4963959;28;20090;-77
2023/07/01 00:52:43;;;;;;;9.40;4.82;;;18.40;81.80;;;;;;4974931;28;20031;-76
2023/07/01 00:55:10;;;;;;;7.55;4.05;;;18.20;82.50;;;;;;4959591;28;20055;-78
2023/07/01 00:57:36;;;;;;;8.25;4.65;;;18.10;83.50;;;;;;4983369;28;20034;-76
2023/07/01 01:00:08;;;;;;;11.43;4.38;;;18.00;83.90;;;;;;4998236;28;20523;-77
2023/07/01 01:02:44;;;;;;;10.15;4.22;;;17.90;84.70;;;;;;4993756;28;20026;-78
2023/07/01 01:05:17;;;;;;;8.98;4.00;;;17.90;85.20;;;;;;4982080;28;20118;-77
2023/07/01 01:08:17;;;;;;;7.88;4.63;;;17.80;85.40;;;;;;4982565;28;20191;-77
2023/07/01 01:10:47;;;;;;;9.73;5.55;;;17.70;85.70;;;;;;4979565;28;20047;-76
2023/07/01 01:13:14;;;;;;;7.95;5.25;;;17.70;85.70;;;;;;4982771;28;20448;-76
2023/07/01 01:15:41;;;;;;;11.57;5.07;;;17.70;86.20;;;;;;4981552;28;20117;-76
2023/07/01 01:18:07;;;;;;;9.27;5.10;;;17.70;86.10;;;;;;4989907;28;20105;-77
2023/07/01 01:20:38;;;;;;;9.70;5.20;;;17.70;86.00;;;;;;4985809;28;20483;-79
2023/07/01 01:23:08;;;;;;;7.43;4.43;;;17.60;86.30;;;;;;4983747;28;20109;-77
2023/07/01 01:25:48;;;;;;;9.35;4.22;;;17.70;86.50;;;;;;4987223;28;20562;-78
2023/07/01 01:28:15;;;;;;;8.93;4.53;;;17.70;86.40;;;;;;4982501;28;20547;-78
2023/07/01 01:30:40;;;;;;;8.65;4.20;;;17.60;86.60;;;;;;4981960;28;20034;-78
2023/07/01 01:33:06;;;;;;;8.35;4.55;;;17.70;86.60;;;;;;4987803;28;20044;-77
2023/07/01 01:35:32;;;;;;;7.30;3.80;;;17.60;86.20;;;;;;4985013;28;20101;-77
2023/07/01 01:38:11;;;;;;;6.05;3.35;;;17.60;86.10;;;;;;4986380;28;20034;-78
2023/07/01 01:40:53;;;;;;;6.38;3.70;;;17.70;86.30;;;;;;5001228;28;20203;-77
2023/07/01 01:43:57;;;;;;;8.02;3.97;;;17.70;86.30;;;;;;4986805;28;20471;-77
2023/07/01 01:46:25;;;;;;;7.70;3.28;;;17.70;85.90;;;;;;4979235;28;20119;-78
2023/07/01 01:48:53;;;;;;;8.15;3.58;;;17.70;86.00;;;;;;5006728;28;20367;-78
2023/07/01 01:51:22;;;;;;;6.45;3.50;;;17.70;86.10;;;;;;4991054;28;20662;-76
2023/07/01 01:53:51;;;;;;;8.00;3.65;;;17.70;85.70;;;;;;4996289;28;20038;-78
2023/07/01 01:56:18;;;;;;;6.78;3.53;;;17.70;85.80;;;;;;4993480;28;20038;-77
2023/07/01 01:58:43;;;;;;;8.00;3.42;;;17.70;85.40;;;;;;4997931;28;20026;-78
2023/07/01 02:01:09;;;;;;;7.20;3.55;;;17.70;85.50;;;;;;4992110;28;20446;-77
2023/07/01 02:03:35;;;;;;;5.40;2.53;;;17.70;85.40;;;;;;5009991;28;20050;-76
2023/07/01 02:06:00;;;;;;;6.53;3.10;;;17.70;85.40;;;;;;4986693;28;20050;-76
2023/07/01 02:08:26;;;;;;;6.15;3.10;;;17.70;85.30;;;;;;4987195;28;20101;-76
2023/07/01 02:10:52;;;;;;;6.40;2.88;;;17.80;85.30;;;;;;4985572;28;20042;-77
2023/07/01 02:13:17;;;;;;;6.72;3.13;;;17.80;84.90;;;;;;4989940;28;20054;-77
2023/07/01 02:15:44;;;;;;;4.57;2.58;;;17.70;84.80;;;;;;4983343;28;20042;-77
2023/07/01 02:18:09;;;;;;;6.68;3.05;;;17.70;84.90;;;;;;4989980;28;20030;-75
2023/07/01 02:20:35;;;;;;;5.93;3.08;;;17.80;84.80;;;;;;4982848;28;20035;-78
2023/07/01 02:23:01;;;;;;;9.77;3.20;;;17.80;84.70;;;;;;4986075;28;20036;-76
2023/07/01 02:25:26;;;;;;;4.90;3.05;;;17.80;84.70;;;;;;4996953;28;20053;-75
2023/07/01 02:27:52;;;;;;;8.80;3.20;;;17.80;84.50;;;;;;4987113;28;20034;-75
2023/07/01 02:30:18;;;;;;;6.28;2.88;;;17.80;84.50;;;;;;4980662;28;20105;-76
2023/07/01 02:32:43;;;;;;;5.72;3.00;;;17.80;84.70;;;;;;4986169;28;20084;-75
2023/07/01 02:35:09;;;;;;;5.30;3.00;;;17.80;84.70;;;;;;4984813;28;20379;-77
2023/07/01 02:37:34;;;;;;;6.90;3.42;;;17.80;84.60;;;;;;4985919;28;20579;-77
2023/07/01 02:40:02;;;;;;;5.93;3.17;;;17.80;84.50;;;;;;4986127;28;20035;-76
2023/07/01 02:42:28;;;;;;;5.60;2.70;;;17.80;84.70;;;;;;4978112;28;20141;-76
2023/07/01 02:44:54;;;;;;;5.80;3.05;;;17.80;84.70;;;;;;4979190;28;20088;-77
2023/07/01 02:47:19;;;;;;;6.50;2.95;;;17.80;84.80;;;;;;4984242;28;20025;-77
2023/07/01 02:49:45;;;;;;;6.00;2.70;;;17.80;84.70;;;;;;4980807;28;20093;-77
2023/07/01 02:52:11;;;;;;;5.60;3.10;;;17.80;84.90;;;;;;4987521;28;20037;-77
2023/07/01 02:54:40;;;;;;;5.50;2.95;;;17.80;85.30;;;;;;4982484;28;20132;-77
2023/07/01 02:57:10;;;;;;;5.20;2.70;;;17.80;85.30;;;;;;4985649;28;20037;-75
2023/07/01 02:59:37;;;;;;;4.65;2.65;;;17.80;85.70;;;;;;4980867;28;20015;-75
2023/07/01 03:02:04;;;;;;;3.88;2.40;;;17.80;85.90;;;;;;5000203;28;20042;-77
2023/07/01 03:04:30;;;;;;;4.47;2.60;;;17.90;85.80;;;;;;4986831;28;20038;-76
2023/07/01 03:06:56;;;;;;;5.22;2.72;;;17.80;86.10;;;;;;4984762;28;20057;-76
2023/07/01 03:09:22;;;;;;;3.60;2.53;;;17.80;86.30;;;;;;4985284;28;20026;-76
2023/07/01 03:11:48;;;;;;;7.18;2.60;;;17.70;86.40;;;;;;4982003;28;20038;-83
2023/07/01 03:14:14;;;;;;;5.75;3.03;;;17.80;86.40;;;;;;4982908;28;20051;-76
2023/07/01 03:16:42;;;;;;;3.72;2.25;;;17.80;86.70;;;;;;4982813;28;20069;-76
2023/07/01 03:19:08;;;;;;;5.68;2.75;;;17.70;87.00;;;;;;4977128;28;20054;-75
2023/07/01 03:21:35;;;;;;;4.90;2.55;;;17.70;87.30;;;;;;4979912;28;20061;-75
2023/07/01 03:24:00;;;;;;;5.35;2.63;;;17.70;87.50;;;;;;4980489;28;20755;-75
2023/07/01 03:26:27;;;;;;;4.10;2.63;;;17.70;87.80;;;;;;4983400;28;20050;-75
2023/07/01 03:28:53;;;;;;;5.00;2.55;;;17.60;87.70;;;;;;4981207;28;20045;-75
2023/07/01 03:31:22;;;;;;;4.38;2.60;;;17.60;87.70;;;;;;4983414;28;20045;-74
2023/07/01 03:33:48;;;;;;;3.75;2.58;;;17.70;88.00;;;;;;4985919;28;20045;-74
2023/07/01 03:36:15;;;;;;;4.35;2.60;;;17.70;88.00;;;;;;5000392;28;20038;-76
2023/07/01 03:38:41;;;;;;;5.45;3.05;;;17.60;88.10;;;;;;4982845;28;20029;-75
2023/07/01 03:41:07;;;;;;;5.47;2.80;;;17.60;88.40;;;;;;4985763;28;20046;-75
2023/07/01 03:43:33;;;;;;;4.57;2.60;;;17.60;88.40;;;;;;4987879;28;20037;-76
2023/07/01 03:45:59;;;;;;;4.88;2.70;;;17.60;88.70;;;;;;4983770;28;20739;-75
2023/07/01 03:48:24;;;;;;;4.43;2.75;;;17.60;88.70;;;;;;4985015;28;20065;-76
2023/07/01 03:50:50;;;;;;;4.38;3.03;;;17.60;88.70;;;;;;4983771;28;20339;-76
2023/07/01 03:53:16;;;;;;;6.18;2.90;;;17.60;88.80;;;;;;4983912;28;20034;-75
2023/07/01 03:55:42;;;;;;;6.65;3.20;;;17.60;88.70;;;;;;4984516;28;20046;-75
2023/07/01 03:58:07;;;;;;;5.32;2.95;;;17.60;88.70;;;;;;4985615;28;20349;-75
2023/07/01 04:00:33;;;;;;;4.78;3.13;;;17.60;88.60;;;;;;4974679;28;20038;-76
2023/07/01 04:03:05;;;;;;;5.07;3.28;;;17.60;88.70;;;;;;4982262;28;20037;-76
2023/07/01 04:05:34;;;;;;;5.97;3.20;;;17.60;88.80;;;;;;4982850;28;20157;-75
2023/07/01 04:08:00;;;;;;;6.13;2.92;;;17.60;88.90;;;;;;4982494;28;20060;-75
2023/07/01 04:10:26;;;;;;;4.90;2.78;;;17.60;88.90;;;;;;4992501;28;20027;-75
2023/07/01 04:12:52;;;;;;;5.40;3.25;;;17.60;89.00;;;;;;4979441;28;20088;-75
2023/07/01 04:15:17;;;;;;;3.88;2.78;;;17.60;88.80;;;;;;5002922;28;20046;-75
2023/07/01 04:17:48;;;;;;;5.43;2.90;;;17.60;88.90;;;;;;4986415;28;20050;-75
2023/07/01 04:20:15;;;;;;;5.57;2.63;;;17.60;88.90;;;;;;4980454;28;20042;-75
2023/07/01 04:22:41;;;;;;;4.35;2.88;;;17.70;88.80;;;;;;4987061;28;20033;-75
2023/07/01 04:25:08;;;;;;;5.85;2.78;;;17.60;88.80;;;;;;4981669;28;20042;-75
2023/07/01 04:27:34;;;;;;;5.25;3.15;;;17.70;88.70;;;;;;4981684;28;20054;-75
2023/07/01 04:30:00;;;;;;;5.00;2.80;;;17.70;88.70;;;;;;4985808;28;20049;-75
2023/07/01 04:32:25;;;;;;;6.75;3.05;;;17.70;88.70;;;;;;4997066;28;20499;-75
2023/07/01 04:34:51;;;;;;;3.38;2.42;;;17.70;88.60;;;;;;4982722;28;20494;-75
2023/07/01 04:37:17;;;;;;;4.13;2.50;;;17.70;88.60;;;;;;4985827;28;20035;-75
2023/07/01 04:39:43;;;;;;;6.20;2.80;;;17.70;88.70;;;;;;4988639;28;20030;-75
2023/07/01 04:42:08;;;;;;;4.63;2.88;;;17.80;88.60;;;;;;4984466;28;20042;-75
2023/07/01 04:44:34;;;;;;;4.38;2.50;;;17.80;88.40;;;;;;4986719;28;20150;-76
2023/07/01 04:47:00;;;;;;;4.60;2.80;;;17.80;88.20;;;;;;4988574;28;20509;-75
2023/07/01 04:49:26;;;;;;;3.78;2.70;;;17.80;88.20;;;;;;4984966;28;20376;-75
2023/07/01 04:51:52;;;;;;;6.68;2.75;;;17.80;88.00;;;;;;4981086;28;20045;-75
2023/07/01 04:54:17;;;;;;;3.75;2.58;;;17.80;88.10;;;;;;4986986;28;20031;-75
2023/07/01 04:56:43;;;;;;;3.95;2.45;;;17.80;88.00;;;;;;4985740;28;20039;-75
2023/07/01 04:59:08;;;;;;;4.45;2.53;;;17.80;87.90;;;;;;4982603;28;20019;-75
2023/07/01 05:01:34;;;;;;;3.85;2.60;;;17.80;88.10;;;;;;4985024;28;20038;-74
2023/07/01 05:04:00;;;;;;;5.13;2.60;;;17.90;88.10;;;;;;4979248;28;20035;-75
2023/07/01 05:06:25;;;;;;;3.63;2.30;;;17.90;88.10;;;;;;4987482;28;20088;-75
2023/07/01 05:08:52;;;;;;;4.38;2.38;;;17.80;88.10;;;;;;4987996;28;20026;-74
2023/07/01 05:11:17;;;;;;;3.85;2.40;;;17.90;88.10;;;;;;4986522;28;20034;-74
2023/07/01 05:13:44;;;;;;;4.25;2.58;;;17.90;88.10;;;;;;4978504;28;20051;-74
2023/07/01 05:16:10;;;;;;;3.50;2.20;;;18.00;88.20;;;;;;5002922;28;20046;-74
2023/07/01 05:18:36;;;;;;;4.95;2.50;;;18.00;88.00;;;;;;4984423;28;20375;-74
2023/07/01 05:21:02;;;;;;;5.10;2.50;;;18.10;88.40;;;;;;4985296;28;20042;-74
2023/07/01 05:23:27;;;;;;;5.55;2.80;;;18.10;88.40;;;;;;4985183;28;20030;-74
2023/07/01 05:25:53;;;;;;;5.28;3.03;;;18.10;88.80;;;;;;4988577;28;20783;-74
2023/07/01 05:28:18;;;;;;;6.35;2.92;;;18.00;89.10;;;;;;4988264;28;20038;-75
2023/07/01 05:30:45;;;;;;;4.75;3.13;;;18.00;89.40;;;;;;4991342;28;20114;-74
2023/07/01 05:33:11;;;;;;;4.10;2.65;;;18.00;89.50;;;;;;4992657;28;20044;-73
2023/07/01 05:35:37;;;;;;;4.63;2.70;;;18.00;89.60;;;;;;4990711;28;20406;-74
2023/07/01 05:38:12;;;;;;;6.60;3.00;;;18.00;89.60;;;;;;4989597;28;21602;-74
2023/07/01 05:40:39;;;;;;;4.50;2.60;;;18.10;89.70;;;;;;4991095;28;20034;-74
2023/07/01 05:43:05;;;;;;;5.20;2.85;;;18.10;89.80;;;;;;4988816;28;20061;-74
2023/07/01 05:45:31;;;;;;;4.43;2.80;;;18.00;90.00;;;;;;4988909;28;20505;-75
2023/07/01 05:47:57;;;;;;;5.95;3.15;;;18.00;89.90;;;;;;4987057;28;20034;-74
2023/07/01 05:50:23;;;;;;;4.43;2.90;;;18.00;90.00;;;;;;4991059;28;20029;-74
2023/07/01 05:52:49;;;;;;;5.50;3.10;;;18.10;90.00;;;;;;4985374;28;20092;-75
2023/07/01 05:55:14;;;;;;;4.72;2.90;;;18.00;90.20;;;;;;4987432;28;20038;-74
2023/07/01 05:57:40;;;;;;;4.95;3.20;;;18.00;90.30;;;;;;4990533;28;20354;-75
2023/07/01 06:00:07;;;;;;;5.85;3.20;;;18.00;90.40;;;;;;4990784;28;20029;-74
2023/07/01 06:02:32;;;;;;;6.38;3.40;;;18.00;90.70;;;;;;4993802;28;20379;-74
2023/07/01 06:04:58;;;;;;;5.35;3.15;;;18.00;90.70;;;;;;4986354;28;20033;-74
2023/07/01 06:07:24;;;;;;;4.22;3.13;;;18.00;90.80;;;;;;4985122;28;20045;-74
2023/07/01 06:09:50;;;;;;;5.78;3.60;;;18.10;90.90;;;;;;4984546;28;20096;-75
2023/07/01 06:12:15;;;;;;;5.18;3.53;;;18.10;90.80;;;;;;5003165;28;20062;-75
2023/07/01 06:14:42;;;;;;;4.40;3.20;;;18.10;90.90;;;;;;4987101;28;20078;-75
2023/07/01 06:17:07;;;;;;;5.75;3.70;;;18.00;91.00;;;;;;4989828;28;20343;-75
2023/07/01 06:19:33;;;;;;;5.90;3.53;;;18.00;91.20;;;;;;4984968;28;20037;-76
2023/07/01 06:21:59;;;;;;;5.90;3.67;;;18.10;91.20;;;;;;4988827;28;20046;-75
2023/07/01 06:24:24;;;;;;;7.15;4.30;;;18.10;91.20;;;;;;4988997;28;20124;-75
2023/07/01 06:26:50;;;;;;;7.65;3.97;;;18.10;91.20;;;;;;4990294;28;20042;-75
2023/07/01 06:29:16;;;;;;;5.78;3.65;;;18.20;91.10;;;;;;4985455;28;20058;-75
2023/07/01 06:31:42;;;;;;;4.45;3.45;;;18.30;90.90;;;;;;4985227;28;20493;-76
2023/07/01 06:34:17;;;;;;;6.55;3.80;;;18.30;91.00;;;;;;4990133;28;20040;-75
2023/07/01 06:36:43;;;;;;;6.43;3.85;;;18.30;91.00;;;;;;4980166;28;20042;-76
2023/07/01 06:39:10;;;;;;;5.45;3.38;;;18.30;91.00;;;;;;4990762;28;20057;-75
2023/07/01 06:41:35;;;;;;;4.95;3.45;;;18.40;91.00;;;;;;4986488;28;20117;-76
2023/07/01 06:44:02;;;;;;;7.28;4.03;;;18.50;91.00;;;;;;4989981;28;20490;-75
2023/07/01 06:46:28;;;;;;;5.57;3.45;;;18.40;90.90;;;;;;4986821;28;20051;-76
2023/07/01 06:48:54;;;;;;;5.47;3.03;;;18.40;91.00;;;;;;4993403;28;20585;-75
2023/07/01 06:51:19;;;;;;;5.07;3.10;;;18.50;91.10;;;;;;4989416;28;20103;-75
2023/07/01 06:53:45;;;;;;;4.60;2.70;;;18.50;91.00;;;;;;4979318;28;20368;-76
2023/07/01 06:56:11;;;;;;;4.38;2.70;;;18.60;91.10;;;;;;4986139;28;20422;-76
2023/07/01 06:58:40;;;;;;;5.80;2.50;;;18.50;91.00;;;;;;4987155;28;20038;-74
2023/07/01 07:01:06;;;;;;;4.22;2.72;;;18.60;90.90;;;;;;4986782;28;20077;-75
2023/07/01 07:03:33;;;;;;;3.83;2.42;;;18.60;90.90;;;;;;4988145;28;20034;-75
2023/07/01 07:05:59;;;;;;;3.58;2.30;;;18.60;90.90;;;;;;4989132;28;20479;-74
2023/07/01 07:08:25;;;;;;;4.90;2.42;;;18.60;90.80;;;;;;4984430;28;20118;-75
2023/07/01 07:10:51;;;;;;;4.28;2.90;;;18.60;90.90;;;;;;4985221;28;20118;-74
2023/07/01 07:13:17;;;;;;;6.20;2.63;;;18.60;90.80;;;;;;4990554;28;20030;-74
2023/07/01 07:15:43;;;;;;;4.15;2.92;;;18.60;90.70;;;;;;4986527;28;20073;-75
2023/07/01 07:18:10;;;;;;;4.97;3.05;;;18.60;90.80;;;;;;4989464;28;20046;-75
2023/07/01 07:20:38;;;;;;;5.03;3.20;;;18.60;90.90;;;;;;4985406;28;20038;-74
2023/07/01 07:23:06;;;;;;;5.68;3.03;;;18.50;90.80;;;;;;4985959;28;20041;-77
2023/07/01 07:25:32;;;;;;;6.72;3.80;;;18.60;90.90;;;;;;4986293;28;20034;-76
2023/07/01 07:27:58;;;;;;;6.65;3.40;;;18.60;90.90;;;;;;4986682;28;20101;-77
2023/07/01 07:30:24;;;;;;;7.55;3.83;;;18.60;90.80;;;;;;4985662;28;20118;-76
2023/07/01 07:32:49;;;;;;;6.60;3.83;;;18.60;90.80;;;;;;4986354;28;20118;-77
2023/07/01 07:35:15;;;;;;;7.88;3.58;;;18.60;90.70;;;;;;4988582;28;20486;-76
2023/07/01 07:37:42;;;;;;;7.60;4.30;;;18.70;90.60;;;;;;4988137;28;20053;-76
2023/07/01 07:40:08;;;;;;;9.73;4.72;;;18.80;90.70;;;;;;4984569;28;20025;-76
2023/07/01 07:42:35;;;;;;;7.32;4.68;;;18.80;90.50;;;;;;4985158;28;20018;-76
2023/07/01 07:45:04;;;;;;;7.18;4.40;;;18.80;90.60;;;;;;4985850;28;20153;-76
2023/07/01 07:47:29;;;;;;;8.02;5.05;;;18.90;90.60;;;;;;4980825;28;20389;-76
2023/07/01 07:49:55;;;;;;;7.63;4.60;;;18.90;90.30;;;;;;4986180;28;20125;-76
2023/07/01 07:52:21;;;;;;;7.70;4.70;;;18.90;90.30;;;;;;4983443;28;20483;-77
2023/07/01 07:54:47;;;;;;;8.60;4.80;;;18.90;90.10;;;;;;4985603;28;20034;-76
2023/07/01 07:57:13;;;;;;;7.57;4.68;;;18.90;89.90;;;;;;4984350;28;20435;-76
2023/07/01 07:59:43;;;;;;;9.77;5.80;;;18.90;90.00;;;;;;4989841;28;20109;-76
2023/07/01 08:02:09;;;;;;;9.82;4.70;;;18.80;89.80;;;;;;4982883;28;20092;-76
2023/07/01 08:04:36;;;;;;;8.82;5.25;;;18.90;90.10;;;;;;4989877;28;20062;-76
2023/07/01 08:07:01;;;;;;;9.40;4.60;;;18.90;89.80;;;;;;5002293;28;20052;-76
2023/07/01 08:09:28;;;;;;;9.93;4.65;;;18.90;89.70;;;;;;4988544;28;20045;-76
2023/07/01 08:11:58;;;;;;;7.68;4.22;;;19.00;89.60;;;;;;4983281;28;20057;-76
2023/07/01 08:14:27;;;;;;;8.80;4.15;;;19.00;89.40;;;;;;4999148;28;20128;-76
2023/07/01 08:16:57;;;;;;;9.75;4.40;;;19.00;89.40;;;;;;4987544;28;20077;-76
2023/07/01 08:19:23;;;;;;;9.82;4.00;;;19.10;89.50;;;;;;4985438;28;20033;-76
2023/07/01 08:21:49;;;;;;;8.73;3.75;;;19.20;88.80;;;;;;4982320;28;20039;-76
2023/07/01 08:24:15;;;;;;;6.55;3.50;;;19.10;88.70;;;;;;4985459;28;20416;-77
2023/07/01 08:26:41;;;;;;;6.90;4.18;;;19.20;88.70;;;;;;4987681;28;20038;-76
2023/07/01 08:29:08;;;;;;;8.98;3.88;;;19.30;88.40;;;;;;4987927;28;20073;-75
2023/07/01 08:31:34;;;;;;;12.07;4.45;;;19.20;88.40;;;;;;4985800;28;20038;-75
2023/07/01 08:34:00;;;;;;;9.98;4.70;;;19.40;88.30;;;;;;4986114;28;20034;-76
2023/07/01 08:36:26;;;;;;;9.73;4.85;;;19.50;87.70;;;;;;4987648;28;20156;-75
2023/07/01 08:38:51;;;;;;;11.00;5.38;;;19.60;87.60;;;;;;4989023;28;20030;-76
2023/07/01 08:41:18;;;;;;;10.43;5.20;;;19.60;87.40;;;;;;4983779;28;20402;-75
2023/07/01 08:43:47;;;;;;;9.20;5.47;;;19.60;87.00;;;;;;4976135;28;20022;-76
2023/07/01 08:46:15;;;;;;;12.20;6.03;;;19.50;87.30;;;;;;4979534;28;20527;-76
2023/07/01 08:48:43;;;;;;;11.07;5.55;;;19.60;87.20;;;;;;4987633;28;20507;-75
2023/07/01 08:51:29;;;;;;;10.85;6.22;;;19.40;87.70;;;;;;4987056;28;20068;-75
2023/07/01 08:53:56;;;;;;;14.95;6.93;;;19.50;88.10;;;;;;4983608;28;20387;-77
2023/07/01 08:56:22;;;;;;;14.52;7.40;;;19.50;87.80;;;;;;4989600;28;20367;-73
2023/07/01 08:58:48;;;;;;;13.68;6.93;;;19.50;87.60;;;;;;4982117;28;20045;-74
2023/07/01 09:01:15;;;;;;;13.70;6.40;;;19.60;87.50;;;;;;4998263;28;20112;-75
2023/07/01 09:03:41;;;;;;;12.85;6.78;;;19.80;87.10;;;;;;4986372;28;20030;-76
2023/07/01 09:06:07;;;;;;;12.95;5.72;;;19.90;87.10;;;;;;4990304;28;20398;-75
2023/07/01 09:08:38;;;;;;;12.65;6.40;;;19.80;87.10;;;;;;4980545;28;20037;-75
2023/07/01 09:11:04;;;;;;;12.15;5.93;;;19.80;87.00;;;;;;4985996;28;20043;-75
2023/07/01 09:13:30;;;;;;;10.10;5.53;;;19.90;86.40;;;;;;4988128;28;20033;-76
2023/07/01 09:15:55;;;;;;;11.40;6.43;;;19.90;86.40;;;;;;4987572;28;20030;-76
2023/07/01 09:18:23;;;;;;;11.27;5.35;;;20.10;86.60;;;;;;4997884;28;20031;-75
2023/07/01 09:20:50;;;;;;;11.63;4.97;;;20.10;85.90;;;;;;4982913;28;20042;-74
2023/07/01 09:23:34;;;;;;;10.35;4.70;;;20.10;84.90;;;;;;4986464;28;20478;-75
2023/07/01 09:26:08;;;;;;;11.43;4.93;;;20.20;85.00;;;;;;4997754;28;20402;-74
2023/07/01 09:28:35;;;;;;;9.25;4.30;;;20.30;84.80;;;;;;4987434;28;20022;-74
2023/07/01 09:31:02;;;;;;;7.10;3.95;;;20.20;84.40;;;;;;4980340;28;20034;-76
2023/07/01 09:33:28;;;;;;;10.15;3.50;;;20.10;84.10;;;;;;4988137;28;20030;-74
2023/07/01 09:35:57;;;;;;;8.20;3.08;;;20.20;83.70;;;;;;4982805;28;20046;-74
2023/07/01 09:38:26;;;;;;;10.20;4.38;;;20.00;84.20;;;;;;4982967;28;20106;-74
2023/07/01 09:40:51;;;;;;;8.73;4.40;;;20.00;84.90;;;;;;4984154;28;20038;-77
2023/07/01 09:43:19;;;;;;;9.73;4.22;;;20.10;84.90;;;;;;4984727;28;20093;-75
2023/07/01 09:45:54;;;;;;;9.25;4.60;;;20.10;84.90;;;;;;4980287;28;20045;-75
2023/07/01 09:48:21;;;;;;;9.80;5.30;;;20.10;84.80;;;;;;4987629;28;20026;-75
2023/07/01 09:50:48;;;;;;;9.50;5.28;;;20.00;84.40;;;;;;4989974;28;20031;-75
2023/07/01 09:53:24;;;;;;;13.70;6.07;;;20.00;84.50;;;;;;4981347;28;20501;-76
2023/07/01 09:55:50;;;;;;;10.48;6.18;;;19.90;85.10;;;;;;4982227;28;20047;-76
2023/07/01 09:58:16;;;;;;;9.38;5.25;;;20.00;85.50;;;;;;4984083;28;20391;-76
2023/07/01 10:00:42;;;;;;;12.05;6.13;;;20.00;85.40;;;;;;4983868;28;20449;-76
2023/07/01 10:03:08;;;;;;;12.65;6.63;;;20.00;85.60;;;;;;4982933;28;20053;-76
2023/07/01 10:05:34;;;;;;;11.18;7.07;;;20.00;85.70;;;;;;4987233;28;20089;-75
2023/07/01 10:08:00;;;;;;;10.15;6.28;;;19.90;85.60;;;;;;4986419;28;20650;-76
2023/07/01 10:10:26;;;;;;;10.10;5.90;;;20.20;85.50;;;;;;4986107;28;20042;-76
2023/07/01 10:12:54;;;;;;;12.98;6.10;;;20.10;84.90;;;;;;4986375;28;20042;-75
2023/07/01 10:15:33;;;;;;;12.50;6.30;;;20.30;84.80;;;;;;4986355;28;20074;-74
2023/07/01 10:17:59;;;;;;;10.27;6.10;;;20.60;84.70;;;;;;4985350;28;20606;-75
2023/07/01 10:20:33;;;;;;;11.18;6.50;;;21.10;84.80;;;;;;4987446;28;20042;-75
2023/07/01 10:23:00;;;;;;;10.30;5.65;;;21.60;83.20;;;;;;4978629;28;20030;-75
2023/07/01 10:25:33;;;;;;;10.60;5.45;;;21.90;81.00;;;;;;4997092;28;20042;-75
2023/07/01 10:28:01;;;;;;;10.90;5.03;;;22.10;81.70;;;;;;4988591;28;20033;-77
2023/07/01 10:30:47;;;;;;;10.70;4.78;;;21.90;78.70;;;;;;4987376;28;20034;-74
2023/07/01 10:33:28;;;;;;;11.57;5.13;;;21.90;77.80;;;;;;5001595;28;20390;-76
2023/07/01 10:36:19;;;;;;;11.25;4.95;;;22.20;78.50;;;;;;4989475;28;20117;-75
2023/07/01 10:38:45;;;;;;;8.52;4.65;;;22.80;77.40;;;;;;4987952;28;20022;-75
2023/07/01 10:41:11;;;;;;;10.80;5.40;;;22.60;75.40;;;;;;4987872;28;20498;-75
2023/07/01 10:43:37;;;;;;;11.18;5.25;;;22.50;74.70;;;;;;4988117;28;20038;-76
2023/07/01 10:46:13;;;;;;;10.38;5.28;;;22.40;75.60;;;;;;4986612;28;20121;-74
2023/07/01 10:48:39;;;;;;;10.45;4.90;;;22.30;76.60;;;;;;4979548;28;20022;-75
2023/07/01 10:51:12;;;;;;;13.60;7.47;;;22.30;77.20;;;;;;4988323;28;20038;-75
2023/07/01 10:53:58;;;;;;;11.57;7.38;;;22.10;76.10;;;;;;4985841;28;20483;-75
2023/07/01 10:56:24;;;;;;;13.80;7.80;;;22.10;76.80;;;;;;4988989;28;20482;-75
2023/07/01 10:59:21;;;;;;;13.75;8.32;;;22.20;76.30;;;;;;4988420;28;20041;-74
2023/07/01 11:01:48;;;;;;;10.60;6.00;;;22.20;75.70;;;;;;5000177;28;20038;-75
2023/07/01 11:04:14;;;;;;;10.00;5.05;;;22.00;76.00;;;;;;4985528;28;20486;-76
2023/07/01 11:06:53;;;;;;;9.13;4.68;;;21.90;75.30;;;;;;4987641;28;20097;-75
2023/07/01 11:09:32;;;;;;;11.52;5.60;;;21.30;78.20;;;;;;4985536;28;20034;-75
2023/07/01 11:12:00;;;;;;;10.95;6.10;;;20.70;80.80;;;;;;5000756;28;20062;-74
2023/07/01 11:14:32;;;;;;;9.10;4.80;;;20.40;82.50;;;;;;4987729;28;20403;-76
2023/07/01 11:17:06;;;;;;;11.15;5.10;;;20.10;83.20;;;;;;4987368;28;20045;-75
2023/07/01 11:19:32;;;;;;;;;;;20.10;83.80;;;;;;4990584;28;20383;-75
2023/07/01 11:21:58;;;;;;;8.70;5.35;;;20.30;84.20;;;;;;4986072;28;19920;-75
2023/07/01 11:24:24;;;;;;;13.57;6.35;;;20.50;84.70;;;;;;4986519;28;20042;-75
2023/07/01 11:26:50;;;;;;;10.73;6.05;;;20.60;83.60;;;;;;4986978;28;20045;-75
2023/07/01 11:29:17;;;;;;;12.60;6.57;;;21.00;83.70;;;;;;4989409;28;20034;-75
2023/07/01 11:31:43;;;;;;;13.20;5.97;;;21.30;83.20;;;;;;4979102;28;20031;-76
2023/07/01 11:34:17;;;;;;;11.05;5.20;;;21.60;81.30;;;;;;4985344;28;20026;-75
2023/07/01 11:36:44;;;;;;;10.45;4.75;;;21.70;80.00;;;;;;4986000;28;20132;-75
2023/07/01 11:39:17;;;;;;;10.48;4.32;;;21.90;79.20;;;;;;4995295;28;20382;-76
2023/07/01 11:42:03;;;;;;;7.93;2.90;;;22.10;77.00;;;;;;4986103;28;20046;-75
2023/07/01 11:44:39;;;;;;;9.57;2.10;;;22.10;75.80;;;;;;4985545;28;20177;-75
2023/07/01 11:47:14;;;;;;;4.90;2.35;;;22.10;73.90;;;;;;4985748;28;20371;-75
2023/07/01 11:49:40;;;;;;;4.78;1.90;;;22.20;73.60;;;;;;4987440;28;20033;-74
2023/07/01 11:52:06;;;;;;;4.30;2.00;;;22.20;72.90;;;;;;4981706;28;20034;-75
2023/07/01 11:54:47;;;;;;;3.28;1.50;;;22.00;71.90;;;;;;4985362;28;20129;-75
2023/07/01 11:57:15;;;;;;;3.63;1.45;;;21.70;71.40;;;;;;4988037;28;20129;-75
2023/07/01 11:59:56;;;;;;;3.15;1.50;;;21.80;72.40;;;;;;4987284;28;20030;-75
2023/07/01 12:02:32;;;;;;;3.92;1.92;;;21.60;72.90;;;;;;4987065;28;20119;-75
2023/07/01 12:05:02;;;;;;;5.40;1.75;;;21.60;72.80;;;;;;4983445;28;20361;-74
2023/07/01 12:07:28;;;;;;;7.95;2.05;;;21.60;73.70;;;;;;4986163;28;20497;-76
2023/07/01 12:09:54;;;;;;;4.30;2.20;;;21.60;74.70;;;;;;4983653;28;20034;-75
2023/07/01 12:12:32;;;;;;;10.00;2.50;;;21.70;74.90;;;;;;5000930;28;20109;-76
2023/07/01 12:15:06;;;;;;;7.00;2.10;;;22.00;73.40;;;;;;4985293;28;20122;-77
2023/07/01 12:17:31;;;;;;;6.55;2.30;;;22.30;73.80;;;;;;4985120;28;20045;-76
2023/07/01 12:20:01;;;;;;;5.30;2.28;;;22.50;72.80;;;;;;4985079;28;20379;-77
2023/07/01 12:22:27;;;;;;;5.40;2.17;;;22.70;72.10;;;;;;4986423;28;20038;-77
2023/07/01 12:24:58;;;;;;;8.38;2.90;;;22.60;72.10;;;;;;4985861;28;20251;-77
2023/07/01 12:27:24;;;;;;;5.57;2.22;;;22.30;71.90;;;;;;4999699;28;20423;-77
2023/07/01 12:29:50;;;;;;;6.45;2.22;;;22.30;73.10;;;;;;4984895;28;20124;-76
2023/07/01 12:32:16;;;;;;;6.15;2.35;;;22.10;71.90;;;;;;4984365;28;20046;-76
2023/07/01 12:34:41;;;;;;;5.15;2.05;;;21.90;73.50;;;;;;4982859;28;20383;-76
2023/07/01 12:37:07;;;;;;;5.30;2.20;;;21.80;72.80;;;;;;4984251;28;20029;-76
2023/07/01 12:39:33;;;;;;;6.80;2.10;;;21.80;73.70;;;;;;4984753;28;20857;-76
2023/07/01 12:42:00;;;;;;;4.25;1.90;;;21.90;73.20;;;;;;4986606;28;20045;-77
2023/07/01 12:44:25;;;;;;;5.50;1.60;;;21.70;72.00;;;;;;4989100;28;20045;-77
2023/07/01 12:46:51;;;;;;;5.10;1.67;;;21.60;70.90;;;;;;4984851;28;20046;-76
2023/07/01 12:49:17;;;;;;;5.32;1.50;;;21.60;71.40;;;;;;4978163;28;20122;-75